createdAt,value
2019-05-01T00:00:21.318Z,10.63
2019-05-01T00:03:02.624Z,13.93
2019-05-01T00:05:34.969Z,11.23
2019-05-01T00:08:04.062Z,11.57
2019-05-01T00:10:33.303Z,8.97
2019-05-01T00:13:02.477Z,12.53
2019-05-01T00:15:33.948Z,11.10
2019-05-01T00:18:03.043Z,9.03
2019-05-01T00:20:32.123Z,13.10
2019-05-01T00:23:01.139Z,12.10
2019-05-01T00:25:30.227Z,11.07
2019-05-01T00:27:59.255Z,10.10
2019-05-01T00:30:30.212Z,7.30
2019-05-01T00:32:59.096Z,6.20
2019-05-01T00:35:28.203Z,7.30
2019-05-01T00:37:57.248Z,5.73
2019-05-01T00:40:26.325Z,7.27
2019-05-01T00:42:55.413Z,6.40
2019-05-01T00:45:24.475Z,5.77
2019-05-01T00:47:53.569Z,9.67
2019-05-01T00:50:22.628Z,5.87
2019-05-01T00:52:51.793Z,8.20
2019-05-01T00:55:39.232Z,9.50
2019-05-01T00:58:15.839Z,7.57
2019-05-01T01:01:13.067Z,8.83
2019-05-01T01:03:42.279Z,8.83
2019-05-01T01:06:11.342Z,9.77
2019-05-01T01:08:40.439Z,11.73
2019-05-01T01:11:09.584Z,9.33
2019-05-01T01:13:38.678Z,8.00
2019-05-01T01:16:07.744Z,11.27
2019-05-01T01:18:36.846Z,9.33
2019-05-01T01:21:05.935Z,9.27
2019-05-01T01:23:35.136Z,6.87
2019-05-01T01:26:04.207Z,6.23
2019-05-01T01:28:33.307Z,8.43
2019-05-01T01:31:02.421Z,7.27
2019-05-01T01:33:31.523Z,10.37
2019-05-01T01:36:00.600Z,6.80
2019-05-01T01:38:29.684Z,8.07
2019-05-01T01:40:59.157Z,6.83
2019-05-01T01:43:53.596Z,5.60
2019-05-01T01:46:24.551Z,5.33
2019-05-01T01:48:53.651Z,5.57
2019-05-01T01:51:22.826Z,6.27
2019-05-01T01:53:53.323Z,8.27
2019-05-01T01:56:22.857Z,5.53
2019-05-01T01:58:52.445Z,6.10
2019-05-01T02:01:39.130Z,7.43
2019-05-01T02:04:18.509Z,6.00
2019-05-01T02:06:48.790Z,12.67
2019-05-01T02:09:18.102Z,14.03
2019-05-01T02:11:48.465Z,9.33
2019-05-01T02:14:17.547Z,9.00
2019-05-01T02:16:46.629Z,13.13
2019-05-01T02:19:15.719Z,8.17
2019-05-01T02:21:44.807Z,10.73
2019-05-01T02:24:13.911Z,7.77
2019-05-01T02:26:46.611Z,11.93
2019-05-01T02:29:21.787Z,9.70
2019-05-01T02:31:53.564Z,14.83
2019-05-01T02:34:24.755Z,15.73
2019-05-01T02:36:58.316Z,13.17
2019-05-01T02:39:28.864Z,12.83
2019-05-01T02:42:01.534Z,13.83
2019-05-01T02:44:39.635Z,13.17
2019-05-01T02:47:11.661Z,13.20
2019-05-01T02:49:54.984Z,13.80
2019-05-01T02:52:28.198Z,8.90
2019-05-01T02:55:01.281Z,8.47
2019-05-01T02:57:31.861Z,9.30
2019-05-01T03:00:00.956Z,7.87
2019-05-01T03:02:31.341Z,8.50
2019-05-01T03:05:01.747Z,9.50
2019-05-01T03:07:33.833Z,6.97
2019-05-01T03:10:08.949Z,7.50
2019-05-01T03:12:38.787Z,11.70
2019-05-01T03:15:08.390Z,13.87
2019-05-01T03:18:00.770Z,14.13
2019-05-01T03:20:39.782Z,11.40
2019-05-01T03:23:44.226Z,16.60
2019-05-01T03:26:13.447Z,9.73
2019-05-01T03:28:42.614Z,10.03
2019-05-01T03:31:11.739Z,9.83
2019-05-01T03:33:42.184Z,9.03
2019-05-01T03:36:11.601Z,10.40
2019-05-01T03:38:40.681Z,11.80
2019-05-01T03:41:10.590Z,13.27
2019-05-01T03:43:40.538Z,16.43
2019-05-01T03:46:10.332Z,18.20
2019-05-01T03:48:39.613Z,24.20
2019-05-01T03:51:08.805Z,18.53
2019-05-01T03:53:38.078Z,13.63
2019-05-01T03:56:07.754Z,15.63
2019-05-01T03:58:37.143Z,15.27
2019-05-01T04:01:40.744Z,19.23
2019-05-01T04:04:13.535Z,14.03
2019-05-01T04:06:42.637Z,17.30
2019-05-01T04:09:11.812Z,16.80
2019-05-01T04:11:41.212Z,18.30
2019-05-01T04:14:10.886Z,19.80
2019-05-01T04:16:41.677Z,15.37
2019-05-01T04:19:11.247Z,13.37
2019-05-01T04:21:46.087Z,15.00
2019-05-01T04:24:15.666Z,17.97
2019-05-01T04:26:45.169Z,14.77
2019-05-01T04:29:33.246Z,23.50
2019-05-01T04:32:21.857Z,15.10
2019-05-01T04:34:57.172Z,17.73
2019-05-01T04:37:26.656Z,26.23
2019-05-01T04:39:56.050Z,25.43
2019-05-01T04:42:25.556Z,33.10
2019-05-01T04:44:55.040Z,30.87
2019-05-01T04:47:24.741Z,22.93
2019-05-01T04:49:54.411Z,27.00
2019-05-01T04:52:23.883Z,23.27
2019-05-01T04:54:52.964Z,27.27
2019-05-01T04:57:22.060Z,23.37
2019-05-01T04:59:51.138Z,28.50
2019-05-01T05:02:28.648Z,25.00
2019-05-01T05:04:58.250Z,30.13
2019-05-01T05:07:27.475Z,28.97
2019-05-01T05:09:56.550Z,31.30
2019-05-01T05:12:35.282Z,29.33
2019-05-01T05:15:26.880Z,33.80
2019-05-01T05:17:56.442Z,30.80
2019-05-01T05:20:25.919Z,31.97
2019-05-01T05:22:55.349Z,33.23
2019-05-01T05:25:24.421Z,26.90
2019-05-01T05:27:54.629Z,34.47
2019-05-01T05:30:26.084Z,27.17
2019-05-01T05:32:56.943Z,27.40
2019-05-01T05:35:28.864Z,35.67
2019-05-01T05:38:20.006Z,30.80
2019-05-01T05:40:49.490Z,31.43
2019-05-01T05:43:18.786Z,36.57
2019-05-01T05:45:48.566Z,33.00
2019-05-01T05:48:17.866Z,35.40
2019-05-01T05:51:05.657Z,31.17
2019-05-01T05:53:39.800Z,34.80
2019-05-01T05:56:14.275Z,25.33
2019-05-01T05:58:48.701Z,24.37
2019-05-01T06:01:30.781Z,32.60
2019-05-01T06:04:36.055Z,29.83
2019-05-01T06:07:28.101Z,25.10
2019-05-01T06:10:25.678Z,24.03
2019-05-01T06:13:17.974Z,32.93
2019-05-01T06:16:12.175Z,26.43
2019-05-01T06:19:01.514Z,23.20
2019-05-01T06:21:40.489Z,23.03
2019-05-01T06:24:15.139Z,26.90
2019-05-01T06:26:44.521Z,24.37
2019-05-01T06:29:13.716Z,29.33
2019-05-01T06:31:42.802Z,28.03
2019-05-01T06:34:11.899Z,27.80
2019-05-01T06:36:44.153Z,23.97
2019-05-01T06:39:13.307Z,26.23
2019-05-01T06:41:44.664Z,27.37
2019-05-01T06:44:39.147Z,22.07
2019-05-01T06:47:19.577Z,26.20
2019-05-01T06:50:18.392Z,20.07
2019-05-01T06:52:48.191Z,26.57
2019-05-01T06:55:17.369Z,20.83
2019-05-01T06:57:47.398Z,19.40
2019-05-01T07:00:18.115Z,16.57
2019-05-01T07:02:49.846Z,15.63
2019-05-01T07:05:22.144Z,20.10
2019-05-01T07:07:54.948Z,20.17
2019-05-01T07:10:31.463Z,23.83
2019-05-01T07:12:59.848Z,19.83
2019-05-01T07:15:28.648Z,19.60
2019-05-01T07:17:57.870Z,23.87
2019-05-01T07:20:47.412Z,29.50
2019-05-01T07:23:18.713Z,25.70
2019-05-01T07:25:48.107Z,24.37
2019-05-01T07:28:17.593Z,24.63
2019-05-01T07:31:04.878Z,22.10
2019-05-01T07:33:32.945Z,25.57
2019-05-01T07:36:02.325Z,23.77
2019-05-01T07:38:32.912Z,24.00
2019-05-01T07:41:03.358Z,21.03
2019-05-01T07:43:54.879Z,21.53
2019-05-01T07:46:27.769Z,21.83
2019-05-01T07:48:57.076Z,19.53
2019-05-01T07:51:26.355Z,20.23
2019-05-01T07:53:59.128Z,19.87
2019-05-01T07:56:28.125Z,18.97
2019-05-01T07:58:58.063Z,20.43
2019-05-01T08:02:04.466Z,24.00
2019-05-01T08:04:36.843Z,19.50
2019-05-01T08:07:04.655Z,20.77
2019-05-01T08:09:33.754Z,21.73
2019-05-01T08:12:02.831Z,17.17
2019-05-01T08:14:31.928Z,20.63
2019-05-01T08:17:01.028Z,18.83
2019-05-01T08:19:45.605Z,17.10
2019-05-01T08:22:17.575Z,20.60
2019-05-01T08:24:46.680Z,17.50
2019-05-01T08:27:25.438Z,16.37
2019-05-01T08:30:00.903Z,15.23
2019-05-01T08:32:44.410Z,23.30
2019-05-01T08:35:15.440Z,22.60
2019-05-01T08:37:44.512Z,19.07
2019-05-01T08:40:15.880Z,15.50
2019-05-01T08:42:44.502Z,17.93
2019-05-01T08:45:48.219Z,20.57
2019-05-01T08:48:39.709Z,19.50
2019-05-01T08:51:08.807Z,13.70
2019-05-01T08:53:37.886Z,19.40
2019-05-01T08:56:09.709Z,18.83
2019-05-01T08:58:37.779Z,19.53
2019-05-01T09:01:10.855Z,17.20
2019-05-01T09:03:37.761Z,14.50
2019-05-01T09:06:06.859Z,20.30
2019-05-01T09:08:35.928Z,21.57
2019-05-01T09:11:05.125Z,22.73
2019-05-01T09:13:34.200Z,22.60
2019-05-01T09:16:03.297Z,20.47
2019-05-01T09:18:32.368Z,21.00
2019-05-01T09:21:01.396Z,23.60
2019-05-01T09:23:30.485Z,20.60
2019-05-01T09:26:16.352Z,21.50
2019-05-01T09:28:50.850Z,24.83
2019-05-01T09:31:21.616Z,19.80
2019-05-01T09:33:50.693Z,24.93
2019-05-01T09:36:19.827Z,27.67
2019-05-01T09:38:50.068Z,18.83
2019-05-01T09:41:19.396Z,18.00
2019-05-01T09:43:48.480Z,29.80
2019-05-01T09:46:17.561Z,29.07
2019-05-01T09:48:47.434Z,23.07
2019-05-01T09:51:25.527Z,20.90
2019-05-01T09:54:09.737Z,24.07
2019-05-01T09:56:38.399Z,22.93
2019-05-01T09:59:07.603Z,24.17
2019-05-01T10:01:36.702Z,26.40
2019-05-01T10:04:05.780Z,25.33
2019-05-01T10:06:34.849Z,26.57
2019-05-01T10:09:05.988Z,27.80
2019-05-01T10:11:35.902Z,23.77
2019-05-01T10:14:05.927Z,23.67
2019-05-01T10:16:34.992Z,22.23
2019-05-01T10:19:04.393Z,21.27
2019-05-01T10:21:33.402Z,19.70
2019-05-01T10:24:02.514Z,21.07
2019-05-01T10:26:33.526Z,22.03
2019-05-01T10:29:25.930Z,22.00
2019-05-01T10:32:00.550Z,17.53
2019-05-01T10:34:42.985Z,22.40
2019-05-01T10:37:12.640Z,20.73
2019-05-01T10:39:41.738Z,21.63
2019-05-01T10:42:10.816Z,18.80
2019-05-01T10:44:39.911Z,22.73
2019-05-01T10:47:08.990Z,23.37
2019-05-01T10:49:38.093Z,22.63
2019-05-01T10:52:14.016Z,20.33
2019-05-01T10:54:38.017Z,22.67
2019-05-01T10:57:07.106Z,23.73
2019-05-01T10:59:36.151Z,21.80
2019-05-01T11:02:07.073Z,19.27
2019-05-01T11:04:36.091Z,20.33
2019-05-01T11:07:05.461Z,20.63
2019-05-01T11:09:34.564Z,18.47
2019-05-01T11:12:03.681Z,18.80
2019-05-01T11:14:32.772Z,15.03
2019-05-01T11:17:01.853Z,15.97
2019-05-01T11:19:30.871Z,18.03
2019-05-01T11:21:59.944Z,16.50
2019-05-01T11:24:29.041Z,15.63
2019-05-01T11:26:58.120Z,15.37
2019-05-01T11:29:27.271Z,14.57
2019-05-01T11:32:22.015Z,14.97
2019-05-01T11:35:16.241Z,13.40
2019-05-01T11:37:53.623Z,10.63
2019-05-01T11:40:30.743Z,12.50
2019-05-01T11:43:02.621Z,11.97
2019-05-01T11:45:30.630Z,13.30
2019-05-01T11:47:59.710Z,13.63
2019-05-01T11:50:28.824Z,13.20
2019-05-01T11:52:57.819Z,9.13
2019-05-01T11:55:26.986Z,8.30
2019-05-01T11:57:56.054Z,10.07
2019-05-01T12:00:25.243Z,11.37
2019-05-01T12:02:54.333Z,11.23
2019-05-01T12:05:23.431Z,10.63
2019-05-01T12:07:52.501Z,10.10
2019-05-01T12:10:21.589Z,9.93
2019-05-01T12:12:50.667Z,9.60
2019-05-01T12:15:19.759Z,8.77
2019-05-01T12:17:49.651Z,9.83
2019-05-01T12:20:19.632Z,9.73
2019-05-01T12:22:51.364Z,8.83
2019-05-01T12:25:19.649Z,8.43
2019-05-01T12:27:48.730Z,9.73
2019-05-01T12:30:20.500Z,8.50
2019-05-01T12:32:49.601Z,8.63
2019-05-01T12:35:18.690Z,7.97
2019-05-01T12:37:47.763Z,7.97
2019-05-01T12:40:19.004Z,8.97
2019-05-01T12:42:48.077Z,8.00
2019-05-01T12:45:17.866Z,8.67
2019-05-01T12:47:58.518Z,7.80
2019-05-01T12:50:27.614Z,6.63
2019-05-01T12:53:23.351Z,7.70
2019-05-01T12:56:11.442Z,7.40
2019-05-01T12:58:40.515Z,7.17
2019-05-01T13:01:09.602Z,6.20
2019-05-01T13:03:38.666Z,7.73
2019-05-01T13:06:07.763Z,7.27
2019-05-01T13:08:36.837Z,7.47
2019-05-01T13:11:06.034Z,6.33
2019-05-01T13:13:35.109Z,7.53
2019-05-01T13:16:04.215Z,7.77
2019-05-01T13:18:33.305Z,8.57
2019-05-01T13:21:02.403Z,8.90
2019-05-01T13:23:31.468Z,8.03
2019-05-01T13:26:37.697Z,9.03
2019-05-01T13:29:12.515Z,7.63
2019-05-01T13:32:00.639Z,7.07
2019-05-01T13:34:29.708Z,6.90
2019-05-01T13:37:03.175Z,7.27
2019-05-01T13:39:29.620Z,7.60
2019-05-01T13:41:58.721Z,6.73
2019-05-01T13:44:27.756Z,7.00
2019-05-01T13:46:56.872Z,7.87
2019-05-01T13:49:25.954Z,6.47
2019-05-01T13:51:55.065Z,7.80
2019-05-01T13:54:24.130Z,8.03
2019-05-01T13:56:53.230Z,7.07
2019-05-01T13:59:22.358Z,6.70
2019-05-01T14:01:51.386Z,5.67
2019-05-01T14:04:21.640Z,6.73
2019-05-01T14:06:50.917Z,6.87
2019-05-01T14:09:29.701Z,7.50
2019-05-01T14:11:58.815Z,6.43
2019-05-01T14:14:27.885Z,6.03
2019-05-01T14:16:56.984Z,7.67
2019-05-01T14:19:26.055Z,6.90
2019-05-01T14:22:17.486Z,8.60
2019-05-01T14:25:34.499Z,7.90
2019-05-01T14:28:03.565Z,8.90
2019-05-01T14:30:32.666Z,7.53
2019-05-01T14:33:01.765Z,8.77
2019-05-01T14:35:30.872Z,10.10
2019-05-01T14:37:59.950Z,9.27
2019-05-01T14:40:29.027Z,10.63
2019-05-01T14:42:58.123Z,9.90
2019-05-01T14:45:27.220Z,10.50
2019-05-01T14:47:56.322Z,9.40
2019-05-01T14:50:25.406Z,8.00
2019-05-01T14:52:54.431Z,8.67
2019-05-01T14:55:23.511Z,8.40
2019-05-01T14:57:52.607Z,10.07
2019-05-01T15:00:21.984Z,9.13
2019-05-01T15:02:51.084Z,9.13
2019-05-01T15:05:20.158Z,8.63
2019-05-01T15:07:49.284Z,8.77
2019-05-01T15:10:18.362Z,8.23
2019-05-01T15:12:49.029Z,8.23
2019-05-01T15:15:43.172Z,9.17
2019-05-01T15:18:18.046Z,7.13
2019-05-01T15:20:47.125Z,7.00
2019-05-01T15:23:16.214Z,6.20
2019-05-01T15:25:45.295Z,7.17
2019-05-01T15:28:14.392Z,6.20
2019-05-01T15:30:43.467Z,6.00
2019-05-01T15:33:12.599Z,8.17
2019-05-01T15:35:41.660Z,8.50
2019-05-01T15:38:10.764Z,7.50
2019-05-01T15:40:46.650Z,6.30
2019-05-01T15:43:30.511Z,7.00
2019-05-01T15:45:59.581Z,8.60
2019-05-01T15:48:28.732Z,9.47
2019-05-01T15:50:57.820Z,9.47
2019-05-01T15:53:26.841Z,9.20
2019-05-01T15:55:55.919Z,9.37
2019-05-01T15:58:25.001Z,9.37
2019-05-01T16:00:54.064Z,8.93
2019-05-01T16:03:23.157Z,8.77
2019-05-01T16:05:52.224Z,12.80
2019-05-01T16:08:21.312Z,10.50
2019-05-01T16:11:15.840Z,10.63
2019-05-01T16:13:44.934Z,10.80
2019-05-01T16:16:13.994Z,9.90
2019-05-01T16:18:43.099Z,8.90
2019-05-01T16:21:12.154Z,8.33
2019-05-01T16:23:42.755Z,9.90
2019-05-01T16:26:11.796Z,10.80
2019-05-01T16:28:40.887Z,11.67
2019-05-01T16:31:10.055Z,11.00
2019-05-01T16:33:39.092Z,11.40
2019-05-01T16:36:08.292Z,10.70
2019-05-01T16:39:02.952Z,10.90
2019-05-01T16:41:32.118Z,11.37
2019-05-01T16:44:01.210Z,10.93
2019-05-01T16:46:30.289Z,12.67
2019-05-01T16:48:59.372Z,11.00
2019-05-01T16:51:29.317Z,11.03
2019-05-01T16:53:58.414Z,9.47
2019-05-01T16:56:27.507Z,10.27
2019-05-01T16:58:56.530Z,10.40
2019-05-01T17:01:44.859Z,10.20
2019-05-01T17:04:30.941Z,10.77
2019-05-01T17:07:17.872Z,9.70
2019-05-01T17:10:00.198Z,10.97
2019-05-01T17:12:33.115Z,12.50
2019-05-01T17:15:02.216Z,10.77
2019-05-01T17:17:31.669Z,9.77
2019-05-01T17:20:00.766Z,13.90
2019-05-01T17:22:29.861Z,12.50
2019-05-01T17:24:58.961Z,11.77
2019-05-01T17:27:28.047Z,12.00
2019-05-01T17:29:57.076Z,11.70
2019-05-01T17:32:26.175Z,13.53
2019-05-01T17:34:55.282Z,13.67
2019-05-01T17:37:24.788Z,11.70
2019-05-01T17:39:53.884Z,12.37
2019-05-01T17:42:22.964Z,10.57
2019-05-01T17:44:55.911Z,11.20
2019-05-01T17:47:23.736Z,11.27
2019-05-01T17:49:53.724Z,11.17
2019-05-01T17:52:22.796Z,11.77
2019-05-01T17:54:51.822Z,11.83
2019-05-01T17:57:20.908Z,12.67
2019-05-01T17:59:52.146Z,11.17
2019-05-01T18:02:40.983Z,13.37
2019-05-01T18:05:17.276Z,10.07
2019-05-01T18:07:46.357Z,10.13
2019-05-01T18:10:15.441Z,9.03
2019-05-01T18:12:44.504Z,7.93
2019-05-01T18:15:13.594Z,8.30
2019-05-01T18:17:42.665Z,7.63
2019-05-01T18:20:11.863Z,8.43
2019-05-01T18:23:08.358Z,9.23
2019-05-01T18:25:54.433Z,6.43
2019-05-01T18:28:36.644Z,6.37
2019-05-01T18:31:08.380Z,6.80
2019-05-01T18:33:37.449Z,6.87
2019-05-01T18:36:07.323Z,7.40
2019-05-01T18:38:47.558Z,5.33
2019-05-01T18:41:35.716Z,5.33
2019-05-01T18:44:05.414Z,4.03
2019-05-01T18:46:35.540Z,7.33
2019-05-01T18:49:04.630Z,4.23
2019-05-01T18:51:36.115Z,3.87
2019-05-01T18:54:04.536Z,7.43
2019-05-01T18:56:38.147Z,5.40
2019-05-01T18:59:04.522Z,3.87
2019-05-01T19:01:33.607Z,3.50
2019-05-01T19:04:02.671Z,3.30
2019-05-01T19:06:40.998Z,4.43
2019-05-01T19:09:14.297Z,3.10
2019-05-01T19:11:33.470Z,4.13
2019-05-01T19:14:02.641Z,3.63
2019-05-01T19:16:31.726Z,3.77
2019-05-01T19:19:03.722Z,3.83
2019-05-01T19:21:33.477Z,4.10
2019-05-01T19:24:05.651Z,4.30
2019-05-01T19:26:33.356Z,7.00
2019-05-01T19:29:02.421Z,3.30
2019-05-01T19:31:31.561Z,3.70
2019-05-01T19:34:00.598Z,4.00
2019-05-01T19:36:29.713Z,3.70
2019-05-01T19:38:58.755Z,3.50
2019-05-01T19:41:27.858Z,4.00
2019-05-01T19:43:56.928Z,3.80
2019-05-01T19:46:26.042Z,5.27
2019-05-01T19:48:55.096Z,5.07
2019-05-01T19:51:25.976Z,3.90
2019-05-01T19:53:55.159Z,3.57
2019-05-01T19:56:24.283Z,3.67
2019-05-01T19:58:53.345Z,3.63
2019-05-01T20:01:22.544Z,3.43
2019-05-01T20:03:51.588Z,3.97
2019-05-01T20:06:20.675Z,4.47
2019-05-01T20:08:49.748Z,4.00
2019-05-01T20:11:18.843Z,5.00
2019-05-01T20:13:47.847Z,3.97
2019-05-01T20:16:17.633Z,4.53
2019-05-01T20:18:46.705Z,4.73
2019-05-01T20:21:15.790Z,4.70
2019-05-01T20:23:44.867Z,4.50
2019-05-01T20:26:13.967Z,4.27
2019-05-01T20:28:43.032Z,4.70
2019-05-01T20:31:12.139Z,4.57
2019-05-01T20:33:44.538Z,4.33
2019-05-01T20:36:12.012Z,7.00
2019-05-01T20:38:41.079Z,5.00
2019-05-01T20:41:15.697Z,4.20
2019-05-01T20:43:43.314Z,5.10
2019-05-01T20:46:11.712Z,3.87
2019-05-01T20:48:40.768Z,4.20
2019-05-01T20:51:09.834Z,3.80
2019-05-01T20:53:38.937Z,5.20
2019-05-01T20:56:18.664Z,4.37
2019-05-01T20:58:47.732Z,6.47
2019-05-01T21:01:16.887Z,5.40
2019-05-01T21:03:56.212Z,5.20
2019-05-01T21:06:28.457Z,4.50
2019-05-01T21:09:01.911Z,3.93
2019-05-01T21:11:34.775Z,5.30
2019-05-01T21:14:16.977Z,3.90
2019-05-01T21:16:37.892Z,4.60
2019-05-01T21:19:05.399Z,4.83
2019-05-01T21:21:34.491Z,10.03
2019-05-01T21:24:03.719Z,5.30
2019-05-01T21:26:33.530Z,7.20
2019-05-01T21:29:04.105Z,8.53
2019-05-01T21:31:34.114Z,6.40
2019-05-01T21:34:04.185Z,9.93
2019-05-01T21:36:33.365Z,9.00
2019-05-01T21:39:02.544Z,7.60
2019-05-01T21:41:32.887Z,8.97
2019-05-01T21:44:03.117Z,7.00
2019-05-01T21:46:34.045Z,9.37
2019-05-01T21:49:03.301Z,8.23
2019-05-01T21:51:32.820Z,6.93
2019-05-01T21:54:03.266Z,11.17
2019-05-01T21:56:32.510Z,7.87
2019-05-01T21:59:04.739Z,8.63
2019-05-01T22:01:34.910Z,12.60
2019-05-01T22:04:03.366Z,10.63
2019-05-01T22:06:32.435Z,9.07
2019-05-01T22:09:01.515Z,8.50
2019-05-01T22:11:33.033Z,9.23
2019-05-01T22:14:02.822Z,9.17
2019-05-01T22:16:31.888Z,8.03
2019-05-01T22:19:25.927Z,7.27
2019-05-01T22:22:13.986Z,9.03
2019-05-01T22:24:57.203Z,11.97
2019-05-01T22:27:33.127Z,10.37
2019-05-01T22:30:12.834Z,11.07
2019-05-01T22:32:46.088Z,13.30
2019-05-01T22:35:26.189Z,14.40
2019-05-01T22:37:55.292Z,17.20
2019-05-01T22:40:43.364Z,16.90
2019-05-01T22:43:12.456Z,13.13
2019-05-01T22:45:41.532Z,12.33
2019-05-01T22:48:10.619Z,9.70
2019-05-01T22:50:39.714Z,11.23
2019-05-01T22:53:13.071Z,11.97
2019-05-01T22:55:39.635Z,12.77
2019-05-01T22:58:08.704Z,12.40
2019-05-01T23:00:43.520Z,13.70
2019-05-01T23:03:19.480Z,13.03
2019-05-01T23:05:48.554Z,13.63
2019-05-01T23:08:17.645Z,16.30
2019-05-01T23:10:48.479Z,16.50
2019-05-01T23:13:17.697Z,12.30
2019-05-01T23:15:46.795Z,14.70
2019-05-01T23:18:17.352Z,16.13
2019-05-01T23:20:46.448Z,16.47
2019-05-01T23:23:15.530Z,14.17
2019-05-01T23:25:44.612Z,15.10
2019-05-01T23:28:13.685Z,12.47
2019-05-01T23:30:42.787Z,8.97
2019-05-01T23:33:11.875Z,10.60
2019-05-01T23:35:40.976Z,10.43
2019-05-01T23:38:10.048Z,8.67
2019-05-01T23:40:39.185Z,10.53
2019-05-01T23:43:08.217Z,7.13
2019-05-01T23:45:37.309Z,6.80
2019-05-01T23:48:06.374Z,6.90
2019-05-01T23:50:35.478Z,9.27
2019-05-01T23:53:04.532Z,8.03
2019-05-01T23:55:33.542Z,7.53
2019-05-01T23:58:02.621Z,9.13
